Luther, Iowa
Current Conditions -  °F | °C
As of 7:55 AM on Wednesday 28 Jan 2015 (Local Time) from KBNW Reporting Station
Haze Haze  
Wind Chill: 16°   Ceiling: 300
Heat Index: 30°   Visibility: 1mi
Dew Point: 30°   Wind: 24mph
Humidity: 100%   Direction: 140°SE
Pressure: 29.96"   Gusts: NA
Location:  41.97°N, 93.82°W
Report Text: KBNW 281355Z AUTO 14021KT 1SM BR OVC003 M01/M01 A2996 RMK AO2
Loading
Personal Weather Stations






























Interactive Weather Map New forecast layout! Learn more

10-Day Weather Forecast

Advertisements
Track Severe Weather on mobile